sensor_id;sensor_type;location;lat;lon;timestamp;temperature;humidity
15083;DHT22;7640;53.116;6.878;2022-11-06T00:00:30;11.40;99.90
15083;DHT22;7640;53.116;6.878;2022-11-06T00:03:03;11.40;99.90
15083;DHT22;7640;53.116;6.878;2022-11-06T00:06:16;11.40;99.90
15083;DHT22;7640;53.116;6.878;2022-11-06T00:09:00;11.40;99.90
15083;DHT22;7640;53.116;6.878;2022-11-06T00:11:38;11.40;99.90
15083;DHT22;7640;53.116;6.878;2022-11-06T00:14:24;11.40;99.90
15083;DHT22;7640;53.116;6.878;2022-11-06T00:17:02;11.40;99.90
15083;DHT22;7640;53.116;6.878;2022-11-06T00:22:51;11.40;99.90
15083;DHT22;7640;53.116;6.878;2022-11-06T00:25:38;11.40;99.90
15083;DHT22;7640;53.116;6.878;2022-11-06T00:28:19;11.40;99.90
15083;DHT22;7640;53.116;6.878;2022-11-06T00:31:07;11.40;99.90
15083;DHT22;7640;53.116;6.878;2022-11-06T00:33:50;11.30;99.90
15083;DHT22;7640;53.116;6.878;2022-11-06T00:36:29;11.30;99.90
15083;DHT22;7640;53.116;6.878;2022-11-06T00:39:24;11.20;99.90
15083;DHT22;7640;53.116;6.878;2022-11-06T00:42:11;11.20;99.90
15083;DHT22;7640;53.116;6.878;2022-11-06T00:45:02;11.20;99.90
15083;DHT22;7640;53.116;6.878;2022-11-06T00:47:39;11.10;99.90
15083;DHT22;7640;53.116;6.878;2022-11-06T00:50:20;11.10;99.90
15083;DHT22;7640;53.116;6.878;2022-11-06T00:53:07;11.10;99.90
15083;DHT22;7640;53.116;6.878;2022-11-06T00:56:03;11.00;99.90
15083;DHT22;7640;53.116;6.878;2022-11-06T00:58:38;10.90;99.90
15083;DHT22;7640;53.116;6.878;2022-11-06T01:01:13;10.90;99.90
15083;DHT22;7640;53.116;6.878;2022-11-06T01:04:02;10.90;99.90
15083;DHT22;7640;53.116;6.878;2022-11-06T01:06:37;10.80;99.90
15083;DHT22;7640;53.116;6.878;2022-11-06T01:09:25;10.80;99.90
15083;DHT22;7640;53.116;6.878;2022-11-06T01:12:46;10.80;99.90
15083;DHT22;7640;53.116;6.878;2022-11-06T01:15:28;10.70;99.90
15083;DHT22;7640;53.116;6.878;2022-11-06T01:18:13;10.70;99.90
15083;DHT22;7640;53.116;6.878;2022-11-06T01:21:05;10.70;99.90
15083;DHT22;7640;53.116;6.878;2022-11-06T01:23:53;10.60;99.90
15083;DHT22;7640;53.116;6.878;2022-11-06T01:26:33;10.60;99.90
15083;DHT22;7640;53.116;6.878;2022-11-06T01:29:16;10.70;99.90
15083;DHT22;7640;53.116;6.878;2022-11-06T01:32:08;10.60;99.90
15083;DHT22;7640;53.116;6.878;2022-11-06T01:34:45;10.40;99.90
15083;DHT22;7640;53.116;6.878;2022-11-06T01:37:23;10.60;99.90
15083;DHT22;7640;53.116;6.878;2022-11-06T01:39:59;10.60;99.90
15083;DHT22;7640;53.116;6.878;2022-11-06T01:42:50;10.60;99.90
15083;DHT22;7640;53.116;6.878;2022-11-06T01:45:37;10.50;99.90
15083;DHT22;7640;53.116;6.878;2022-11-06T01:48:17;10.50;99.90
15083;DHT22;7640;53.116;6.878;2022-11-06T01:51:18;10.50;99.90
15083;DHT22;7640;53.116;6.878;2022-11-06T01:53:53;10.50;99.90
15083;DHT22;7640;53.116;6.878;2022-11-06T01:56:28;10.50;99.90
15083;DHT22;7640;53.116;6.878;2022-11-06T01:59:19;10.50;99.90
15083;DHT22;7640;53.116;6.878;2022-11-06T02:05:21;10.50;99.90
15083;DHT22;7640;53.116;6.878;2022-11-06T02:07:55;10.50;99.90
15083;DHT22;7640;53.116;6.878;2022-11-06T02:10:34;10.50;99.90
15083;DHT22;7640;53.116;6.878;2022-11-06T02:13:22;10.50;99.90
15083;DHT22;7640;53.116;6.878;2022-11-06T02:16:23;10.50;99.90
15083;DHT22;7640;53.116;6.878;2022-11-06T02:23:05;10.50;99.90
15083;DHT22;7640;53.116;6.878;2022-11-06T02:26:20;10.30;99.90
15083;DHT22;7640;53.116;6.878;2022-11-06T02:29:19;10.50;99.90
15083;DHT22;7640;53.116;6.878;2022-11-06T02:32:08;10.60;99.90
15083;DHT22;7640;53.116;6.878;2022-11-06T02:34:45;10.50;99.90
15083;DHT22;7640;53.116;6.878;2022-11-06T02:37:37;10.50;99.90
15083;DHT22;7640;53.116;6.878;2022-11-06T02:40:28;10.50;99.90
15083;DHT22;7640;53.116;6.878;2022-11-06T02:43:06;10.40;99.90
15083;DHT22;7640;53.116;6.878;2022-11-06T02:45:59;10.40;99.90
15083;DHT22;7640;53.116;6.878;2022-11-06T02:48:54;10.50;99.90
15083;DHT22;7640;53.116;6.878;2022-11-06T02:51:32;10.50;99.90
15083;DHT22;7640;53.116;6.878;2022-11-06T02:54:19;10.40;99.90
15083;DHT22;7640;53.116;6.878;2022-11-06T02:57:14;10.40;99.90
15083;DHT22;7640;53.116;6.878;2022-11-06T03:00:09;10.40;99.90
15083;DHT22;7640;53.116;6.878;2022-11-06T03:02:59;10.40;99.90
15083;DHT22;7640;53.116;6.878;2022-11-06T03:05:40;10.40;99.90
15083;DHT22;7640;53.116;6.878;2022-11-06T03:08:29;10.40;99.90
15083;DHT22;7640;53.116;6.878;2022-11-06T03:11:14;10.40;99.90
15083;DHT22;7640;53.116;6.878;2022-11-06T03:14:00;10.40;99.90
15083;DHT22;7640;53.116;6.878;2022-11-06T03:16:58;10.40;99.90
15083;DHT22;7640;53.116;6.878;2022-11-06T03:22:56;10.40;99.90
15083;DHT22;7640;53.116;6.878;2022-11-06T03:25:40;10.40;99.90
15083;DHT22;7640;53.116;6.878;2022-11-06T03:28:32;10.40;99.90
15083;DHT22;7640;53.116;6.878;2022-11-06T03:31:10;10.40;99.90
15083;DHT22;7640;53.116;6.878;2022-11-06T03:33:46;10.40;99.90
15083;DHT22;7640;53.116;6.878;2022-11-06T03:36:41;10.40;99.90
15083;DHT22;7640;53.116;6.878;2022-11-06T03:39:53;10.40;99.90
15083;DHT22;7640;53.116;6.878;2022-11-06T03:42:47;10.40;99.90
15083;DHT22;7640;53.116;6.878;2022-11-06T03:45:21;10.50;99.90
15083;DHT22;7640;53.116;6.878;2022-11-06T03:48:03;10.40;99.90
15083;DHT22;7640;53.116;6.878;2022-11-06T03:50:42;10.40;99.90
15083;DHT22;7640;53.116;6.878;2022-11-06T03:53:29;10.40;99.90
15083;DHT22;7640;53.116;6.878;2022-11-06T03:56:33;10.40;99.90
15083;DHT22;7640;53.116;6.878;2022-11-06T03:59:08;10.40;99.90
15083;DHT22;7640;53.116;6.878;2022-11-06T04:01:57;10.40;99.90
15083;DHT22;7640;53.116;6.878;2022-11-06T04:04:48;10.40;99.90
15083;DHT22;7640;53.116;6.878;2022-11-06T04:07:40;10.30;99.90
15083;DHT22;7640;53.116;6.878;2022-11-06T04:10:34;10.40;99.90
15083;DHT22;7640;53.116;6.878;2022-11-06T04:13:32;10.40;99.90
15083;DHT22;7640;53.116;6.878;2022-11-06T04:16:23;10.40;99.90
15083;DHT22;7640;53.116;6.878;2022-11-06T04:19:19;10.30;99.90
15083;DHT22;7640;53.116;6.878;2022-11-06T04:22:11;10.30;99.90
15083;DHT22;7640;53.116;6.878;2022-11-06T04:29:09;10.30;99.90
15083;DHT22;7640;53.116;6.878;2022-11-06T04:31:52;10.30;99.90
15083;DHT22;7640;53.116;6.878;2022-11-06T04:34:50;10.30;99.90
15083;DHT22;7640;53.116;6.878;2022-11-06T04:37:48;10.30;99.90
15083;DHT22;7640;53.116;6.878;2022-11-06T04:40:40;10.30;99.90
15083;DHT22;7640;53.116;6.878;2022-11-06T04:43:35;10.30;99.90
15083;DHT22;7640;53.116;6.878;2022-11-06T04:46:17;10.30;99.90
15083;DHT22;7640;53.116;6.878;2022-11-06T04:48:55;10.30;99.90
15083;DHT22;7640;53.116;6.878;2022-11-06T04:51:46;10.30;99.90
15083;DHT22;7640;53.116;6.878;2022-11-06T04:54:34;10.40;99.90
15083;DHT22;7640;53.116;6.878;2022-11-06T04:57:25;10.30;99.90
15083;DHT22;7640;53.116;6.878;2022-11-06T05:00:06;10.70;99.90
15083;DHT22;7640;53.116;6.878;2022-11-06T05:02:58;10.30;99.90
15083;DHT22;7640;53.116;6.878;2022-11-06T05:05:35;10.30;99.90
15083;DHT22;7640;53.116;6.878;2022-11-06T05:08:08;10.30;99.90
15083;DHT22;7640;53.116;6.878;2022-11-06T05:10:53;10.30;99.90
15083;DHT22;7640;53.116;6.878;2022-11-06T05:13:41;10.70;99.90
15083;DHT22;7640;53.116;6.878;2022-11-06T05:16:22;10.40;99.90
15083;DHT22;7640;53.116;6.878;2022-11-06T05:19:14;10.30;99.90
15083;DHT22;7640;53.116;6.878;2022-11-06T05:21:57;10.30;99.90
15083;DHT22;7640;53.116;6.878;2022-11-06T05:24:48;10.30;99.90
15083;DHT22;7640;53.116;6.878;2022-11-06T05:30:37;10.40;99.90
15083;DHT22;7640;53.116;6.878;2022-11-06T05:33:19;10.40;99.90
15083;DHT22;7640;53.116;6.878;2022-11-06T05:35:51;10.40;99.90
15083;DHT22;7640;53.116;6.878;2022-11-06T05:38:22;11.20;99.90
15083;DHT22;7640;53.116;6.878;2022-11-06T05:40:53;10.40;99.90
15083;DHT22;7640;53.116;6.878;2022-11-06T05:43:35;10.40;99.90
15083;DHT22;7640;53.116;6.878;2022-11-06T05:46:18;10.40;99.90
15083;DHT22;7640;53.116;6.878;2022-11-06T05:49:35;10.40;99.90
15083;DHT22;7640;53.116;6.878;2022-11-06T05:52:17;10.40;99.90
15083;DHT22;7640;53.116;6.878;2022-11-06T05:55:11;10.40;99.90
15083;DHT22;7640;53.116;6.878;2022-11-06T05:57:45;10.40;99.90
15083;DHT22;7640;53.116;6.878;2022-11-06T06:00:20;10.40;99.90
15083;DHT22;7640;53.116;6.878;2022-11-06T06:02:54;10.40;99.90
15083;DHT22;7640;53.116;6.878;2022-11-06T06:05:55;10.40;99.90
15083;DHT22;7640;53.116;6.878;2022-11-06T06:08:54;10.40;99.90
15083;DHT22;7640;53.116;6.878;2022-11-06T06:11:38;10.40;99.90
15083;DHT22;7640;53.116;6.878;2022-11-06T06:14:23;10.40;99.90
15083;DHT22;7640;53.116;6.878;2022-11-06T06:17:01;10.40;99.90
15083;DHT22;7640;53.116;6.878;2022-11-06T06:19:54;10.40;99.90
15083;DHT22;7640;53.116;6.878;2022-11-06T06:22:30;10.40;99.90
15083;DHT22;7640;53.116;6.878;2022-11-06T06:28:17;10.40;99.90
15083;DHT22;7640;53.116;6.878;2022-11-06T06:30:56;10.40;99.90
15083;DHT22;7640;53.116;6.878;2022-11-06T06:33:35;11.10;99.90
15083;DHT22;7640;53.116;6.878;2022-11-06T06:36:11;10.40;99.90
15083;DHT22;7640;53.116;6.878;2022-11-06T06:39:13;10.50;99.90
15083;DHT22;7640;53.116;6.878;2022-11-06T06:41:49;10.50;99.90
15083;DHT22;7640;53.116;6.878;2022-11-06T06:44:36;10.40;99.90
15083;DHT22;7640;53.116;6.878;2022-11-06T06:47:23;11.10;99.90
15083;DHT22;7640;53.116;6.878;2022-11-06T06:50:11;10.60;99.90
15083;DHT22;7640;53.116;6.878;2022-11-06T06:52:47;10.50;99.90
15083;DHT22;7640;53.116;6.878;2022-11-06T06:55:22;10.50;99.90
15083;DHT22;7640;53.116;6.878;2022-11-06T06:58:06;10.60;99.90
15083;DHT22;7640;53.116;6.878;2022-11-06T07:00:46;10.60;99.90
15083;DHT22;7640;53.116;6.878;2022-11-06T07:03:42;10.60;99.90
15083;DHT22;7640;53.116;6.878;2022-11-06T07:06:18;10.60;99.90
15083;DHT22;7640;53.116;6.878;2022-11-06T07:09:01;10.70;99.90
15083;DHT22;7640;53.116;6.878;2022-11-06T07:12:18;10.70;99.90
15083;DHT22;7640;53.116;6.878;2022-11-06T07:15:03;10.80;99.90
15083;DHT22;7640;53.116;6.878;2022-11-06T07:17:44;10.80;99.90
15083;DHT22;7640;53.116;6.878;2022-11-06T07:20:20;10.90;99.90
15083;DHT22;7640;53.116;6.878;2022-11-06T07:22:58;10.90;99.90
15083;DHT22;7640;53.116;6.878;2022-11-06T07:25:54;10.90;99.90
15083;DHT22;7640;53.116;6.878;2022-11-06T07:28:42;11.00;99.90
15083;DHT22;7640;53.116;6.878;2022-11-06T07:31:58;11.00;99.90
15083;DHT22;7640;53.116;6.878;2022-11-06T07:34:49;11.10;99.90
15083;DHT22;7640;53.116;6.878;2022-11-06T07:37:34;11.10;99.90
15083;DHT22;7640;53.116;6.878;2022-11-06T07:40:22;11.10;99.90
15083;DHT22;7640;53.116;6.878;2022-11-06T07:43:05;11.10;99.90
15083;DHT22;7640;53.116;6.878;2022-11-06T07:45:53;11.20;99.90
15083;DHT22;7640;53.116;6.878;2022-11-06T07:48:51;11.20;99.90
15083;DHT22;7640;53.116;6.878;2022-11-06T07:51:45;11.20;99.90
15083;DHT22;7640;53.116;6.878;2022-11-06T07:54:25;11.20;99.90
15083;DHT22;7640;53.116;6.878;2022-11-06T07:57:02;11.20;99.90
15083;DHT22;7640;53.116;6.878;2022-11-06T07:59:53;11.20;99.90
15083;DHT22;7640;53.116;6.878;2022-11-06T08:02:36;11.30;99.90
15083;DHT22;7640;53.116;6.878;2022-11-06T08:05:29;11.30;99.90
15083;DHT22;7640;53.116;6.878;2022-11-06T08:08:02;11.30;99.90
15083;DHT22;7640;53.116;6.878;2022-11-06T08:10:46;11.30;99.90
15083;DHT22;7640;53.116;6.878;2022-11-06T08:13:39;11.30;99.90
15083;DHT22;7640;53.116;6.878;2022-11-06T08:16:26;11.40;99.90
15083;DHT22;7640;53.116;6.878;2022-11-06T08:19:05;11.40;99.90
15083;DHT22;7640;53.116;6.878;2022-11-06T08:21:51;11.40;99.90
15083;DHT22;7640;53.116;6.878;2022-11-06T08:24:28;11.60;99.90
15083;DHT22;7640;53.116;6.878;2022-11-06T08:27:31;11.40;99.90
15083;DHT22;7640;53.116;6.878;2022-11-06T08:30:16;11.50;99.90
15083;DHT22;7640;53.116;6.878;2022-11-06T08:33:13;11.50;99.90
15083;DHT22;7640;53.116;6.878;2022-11-06T08:39:33;11.50;99.90
15083;DHT22;7640;53.116;6.878;2022-11-06T08:42:19;11.50;99.90
15083;DHT22;7640;53.116;6.878;2022-11-06T08:45:02;11.50;99.90
15083;DHT22;7640;53.116;6.878;2022-11-06T08:47:43;11.50;99.90
15083;DHT22;7640;53.116;6.878;2022-11-06T08:53:13;11.60;99.90
15083;DHT22;7640;53.116;6.878;2022-11-06T08:55:46;11.60;99.90
15083;DHT22;7640;53.116;6.878;2022-11-06T08:58:38;11.60;99.90
15083;DHT22;7640;53.116;6.878;2022-11-06T09:01:22;11.70;99.90
15083;DHT22;7640;53.116;6.878;2022-11-06T09:04:03;11.70;99.90
15083;DHT22;7640;53.116;6.878;2022-11-06T09:06:48;11.70;99.90
15083;DHT22;7640;53.116;6.878;2022-11-06T09:09:31;11.70;99.90
15083;DHT22;7640;53.116;6.878;2022-11-06T09:12:19;11.70;99.90
15083;DHT22;7640;53.116;6.878;2022-11-06T09:15:06;11.70;99.90
15083;DHT22;7640;53.116;6.878;2022-11-06T09:17:49;11.70;99.90
15083;DHT22;7640;53.116;6.878;2022-11-06T09:20:28;11.60;99.90
15083;DHT22;7640;53.116;6.878;2022-11-06T09:23:00;11.60;99.90
15083;DHT22;7640;53.116;6.878;2022-11-06T09:25:35;11.50;99.90
15083;DHT22;7640;53.116;6.878;2022-11-06T09:28:12;11.50;99.90
15083;DHT22;7640;53.116;6.878;2022-11-06T09:30:47;11.60;99.90
15083;DHT22;7640;53.116;6.878;2022-11-06T09:33:23;12.20;99.90
15083;DHT22;7640;53.116;6.878;2022-11-06T09:36:04;11.70;99.90
15083;DHT22;7640;53.116;6.878;2022-11-06T09:39:07;11.80;99.90
15083;DHT22;7640;53.116;6.878;2022-11-06T09:42:11;11.90;99.90
15083;DHT22;7640;53.116;6.878;2022-11-06T09:45:07;12.00;99.90
15083;DHT22;7640;53.116;6.878;2022-11-06T09:48:14;12.10;99.90
15083;DHT22;7640;53.116;6.878;2022-11-06T09:51:00;12.70;99.90
15083;DHT22;7640;53.116;6.878;2022-11-06T09:53:54;12.30;99.90
15083;DHT22;7640;53.116;6.878;2022-11-06T09:56:32;12.40;99.90
15083;DHT22;7640;53.116;6.878;2022-11-06T09:59:26;12.60;99.90
15083;DHT22;7640;53.116;6.878;2022-11-06T10:02:14;12.70;99.90
15083;DHT22;7640;53.116;6.878;2022-11-06T10:05:10;12.80;99.90
15083;DHT22;7640;53.116;6.878;2022-11-06T10:08:05;12.90;99.90
15083;DHT22;7640;53.116;6.878;2022-11-06T10:11:33;13.00;99.90
15083;DHT22;7640;53.116;6.878;2022-11-06T10:14:50;13.10;99.90
15083;DHT22;7640;53.116;6.878;2022-11-06T10:20:45;13.00;99.90
15083;DHT22;7640;53.116;6.878;2022-11-06T10:23:52;13.00;99.90
15083;DHT22;7640;53.116;6.878;2022-11-06T10:26:35;13.00;99.90
15083;DHT22;7640;53.116;6.878;2022-11-06T10:29:32;13.00;99.90
15083;DHT22;7640;53.116;6.878;2022-11-06T10:32:56;13.10;99.90
15083;DHT22;7640;53.116;6.878;2022-11-06T10:35:52;13.10;99.90
15083;DHT22;7640;53.116;6.878;2022-11-06T10:38:26;13.20;99.90
15083;DHT22;7640;53.116;6.878;2022-11-06T10:41:00;13.30;99.90
15083;DHT22;7640;53.116;6.878;2022-11-06T10:43:53;13.30;99.90
15083;DHT22;7640;53.116;6.878;2022-11-06T10:46:47;13.40;99.90
15083;DHT22;7640;53.116;6.878;2022-11-06T10:49:34;13.40;99.90
15083;DHT22;7640;53.116;6.878;2022-11-06T10:52:44;13.40;99.90
15083;DHT22;7640;53.116;6.878;2022-11-06T10:55:47;13.40;99.90
15083;DHT22;7640;53.116;6.878;2022-11-06T10:58:34;13.40;99.90
15083;DHT22;7640;53.116;6.878;2022-11-06T11:01:12;13.30;99.90
15083;DHT22;7640;53.116;6.878;2022-11-06T11:04:07;13.10;99.90
15083;DHT22;7640;53.116;6.878;2022-11-06T11:09:32;13.00;99.90
15083;DHT22;7640;53.116;6.878;2022-11-06T11:12:20;12.90;99.90
15083;DHT22;7640;53.116;6.878;2022-11-06T11:15:11;12.90;99.90
15083;DHT22;7640;53.116;6.878;2022-11-06T11:18:08;12.80;99.90
15083;DHT22;7640;53.116;6.878;2022-11-06T11:21:24;12.70;99.90
15083;DHT22;7640;53.116;6.878;2022-11-06T11:24:07;12.70;99.90
15083;DHT22;7640;53.116;6.878;2022-11-06T11:26:45;12.60;99.90
15083;DHT22;7640;53.116;6.878;2022-11-06T11:29:27;12.60;99.90
15083;DHT22;7640;53.116;6.878;2022-11-06T11:32:20;12.70;99.90
15083;DHT22;7640;53.116;6.878;2022-11-06T11:38:41;12.90;99.90
15083;DHT22;7640;53.116;6.878;2022-11-06T11:41:24;12.80;99.90
15083;DHT22;7640;53.116;6.878;2022-11-06T11:44:04;13.10;99.90
15083;DHT22;7640;53.116;6.878;2022-11-06T11:47:20;12.90;99.90
15083;DHT22;7640;53.116;6.878;2022-11-06T11:49:54;12.90;99.90
15083;DHT22;7640;53.116;6.878;2022-11-06T11:52:36;12.90;99.90
15083;DHT22;7640;53.116;6.878;2022-11-06T11:55:29;12.90;99.90
15083;DHT22;7640;53.116;6.878;2022-11-06T11:58:20;12.90;99.90
15083;DHT22;7640;53.116;6.878;2022-11-06T12:01:08;12.90;99.90
15083;DHT22;7640;53.116;6.878;2022-11-06T12:03:47;12.90;99.90
15083;DHT22;7640;53.116;6.878;2022-11-06T12:06:19;12.90;99.90
15083;DHT22;7640;53.116;6.878;2022-11-06T12:08:51;12.90;99.90
15083;DHT22;7640;53.116;6.878;2022-11-06T12:11:48;13.00;99.90
15083;DHT22;7640;53.116;6.878;2022-11-06T12:14:36;13.10;99.90
15083;DHT22;7640;53.116;6.878;2022-11-06T12:17:25;13.10;99.90
15083;DHT22;7640;53.116;6.878;2022-11-06T12:20:09;13.10;99.90
15083;DHT22;7640;53.116;6.878;2022-11-06T12:22:57;13.10;99.90
15083;DHT22;7640;53.116;6.878;2022-11-06T12:26:24;13.20;99.90
15083;DHT22;7640;53.116;6.878;2022-11-06T12:29:16;13.20;99.90
15083;DHT22;7640;53.116;6.878;2022-11-06T12:32:12;13.20;99.90
15083;DHT22;7640;53.116;6.878;2022-11-06T12:35:16;13.30;99.90
15083;DHT22;7640;53.116;6.878;2022-11-06T12:38:34;13.30;99.90
15083;DHT22;7640;53.116;6.878;2022-11-06T12:41:18;13.40;99.90
15083;DHT22;7640;53.116;6.878;2022-11-06T12:43:56;13.60;99.90
15083;DHT22;7640;53.116;6.878;2022-11-06T12:46:51;13.70;99.90
15083;DHT22;7640;53.116;6.878;2022-11-06T12:50:29;13.60;99.90
15083;DHT22;7640;53.116;6.878;2022-11-06T12:53:28;13.90;99.90
15083;DHT22;7640;53.116;6.878;2022-11-06T12:59:29;14.00;99.90
15083;DHT22;7640;53.116;6.878;2022-11-06T13:02:54;14.10;99.90
15083;DHT22;7640;53.116;6.878;2022-11-06T13:06:11;14.10;99.90
15083;DHT22;7640;53.116;6.878;2022-11-06T13:08:49;14.00;99.90
15083;DHT22;7640;53.116;6.878;2022-11-06T13:11:54;14.00;99.90
15083;DHT22;7640;53.116;6.878;2022-11-06T13:14:58;14.00;99.90
15083;DHT22;7640;53.116;6.878;2022-11-06T13:17:50;13.90;99.90
15083;DHT22;7640;53.116;6.878;2022-11-06T13:20:35;13.90;99.90
15083;DHT22;7640;53.116;6.878;2022-11-06T13:23:13;13.80;99.90
15083;DHT22;7640;53.116;6.878;2022-11-06T13:26:05;13.80;99.90
15083;DHT22;7640;53.116;6.878;2022-11-06T13:29:10;13.80;99.90
15083;DHT22;7640;53.116;6.878;2022-11-06T13:31:57;13.70;99.90
15083;DHT22;7640;53.116;6.878;2022-11-06T13:34:47;13.70;99.90
15083;DHT22;7640;53.116;6.878;2022-11-06T13:37:37;14.10;99.90
15083;DHT22;7640;53.116;6.878;2022-11-06T13:40:34;13.60;99.90
15083;DHT22;7640;53.116;6.878;2022-11-06T13:43:18;13.60;99.90
15083;DHT22;7640;53.116;6.878;2022-11-06T13:46:03;13.60;99.90
15083;DHT22;7640;53.116;6.878;2022-11-06T13:49:12;13.70;99.90
15083;DHT22;7640;53.116;6.878;2022-11-06T13:51:54;13.60;99.90
15083;DHT22;7640;53.116;6.878;2022-11-06T13:54:42;13.60;99.90
15083;DHT22;7640;53.116;6.878;2022-11-06T13:58:00;13.50;99.90
15083;DHT22;7640;53.116;6.878;2022-11-06T14:01:05;13.50;99.90
15083;DHT22;7640;53.116;6.878;2022-11-06T14:07:39;13.50;99.90
15083;DHT22;7640;53.116;6.878;2022-11-06T14:10:33;13.40;99.90
15083;DHT22;7640;53.116;6.878;2022-11-06T14:13:06;13.40;99.90
15083;DHT22;7640;53.116;6.878;2022-11-06T14:15:37;13.40;99.90
15083;DHT22;7640;53.116;6.878;2022-11-06T14:18:20;13.40;99.90
15083;DHT22;7640;53.116;6.878;2022-11-06T14:24:34;13.40;99.90
15083;DHT22;7640;53.116;6.878;2022-11-06T14:31:03;13.30;99.90
15083;DHT22;7640;53.116;6.878;2022-11-06T14:34:13;13.30;99.90
15083;DHT22;7640;53.116;6.878;2022-11-06T14:37:45;13.30;99.90
15083;DHT22;7640;53.116;6.878;2022-11-06T14:40:31;13.20;99.90
15083;DHT22;7640;53.116;6.878;2022-11-06T14:43:19;13.20;99.90
15083;DHT22;7640;53.116;6.878;2022-11-06T14:45:55;13.20;99.90
15083;DHT22;7640;53.116;6.878;2022-11-06T14:48:49;13.20;99.90
15083;DHT22;7640;53.116;6.878;2022-11-06T14:51:39;13.20;99.90
15083;DHT22;7640;53.116;6.878;2022-11-06T14:54:23;13.20;99.90
15083;DHT22;7640;53.116;6.878;2022-11-06T14:57:04;13.20;99.90
15083;DHT22;7640;53.116;6.878;2022-11-06T14:59:37;13.20;99.90
15083;DHT22;7640;53.116;6.878;2022-11-06T15:02:27;13.20;99.90
15083;DHT22;7640;53.116;6.878;2022-11-06T15:05:18;13.20;99.90
15083;DHT22;7640;53.116;6.878;2022-11-06T15:08:10;13.10;99.90
15083;DHT22;7640;53.116;6.878;2022-11-06T15:10:52;13.30;99.90
15083;DHT22;7640;53.116;6.878;2022-11-06T15:13:32;13.10;99.90
15083;DHT22;7640;53.116;6.878;2022-11-06T15:16:13;13.10;99.90
15083;DHT22;7640;53.116;6.878;2022-11-06T15:18:48;13.10;99.90
15083;DHT22;7640;53.116;6.878;2022-11-06T15:24:58;13.00;99.90
15083;DHT22;7640;53.116;6.878;2022-11-06T15:27:54;12.90;99.90
15083;DHT22;7640;53.116;6.878;2022-11-06T15:30:58;12.90;99.90
15083;DHT22;7640;53.116;6.878;2022-11-06T15:33:46;12.90;99.90
15083;DHT22;7640;53.116;6.878;2022-11-06T15:36:25;12.90;99.90
15083;DHT22;7640;53.116;6.878;2022-11-06T15:39:20;12.80;99.90
15083;DHT22;7640;53.116;6.878;2022-11-06T15:42:08;12.80;99.90
15083;DHT22;7640;53.116;6.878;2022-11-06T15:45:06;12.80;99.90
15083;DHT22;7640;53.116;6.878;2022-11-06T15:51:17;12.80;99.90
15083;DHT22;7640;53.116;6.878;2022-11-06T15:57:35;12.70;99.90
15083;DHT22;7640;53.116;6.878;2022-11-06T16:00:38;12.60;99.90
15083;DHT22;7640;53.116;6.878;2022-11-06T16:03:20;12.20;99.90
15083;DHT22;7640;53.116;6.878;2022-11-06T16:06:02;12.40;99.90
15083;DHT22;7640;53.116;6.878;2022-11-06T16:08:45;12.30;99.90
15083;DHT22;7640;53.116;6.878;2022-11-06T16:11:42;12.30;99.90
15083;DHT22;7640;53.116;6.878;2022-11-06T16:14:22;12.20;99.90
15083;DHT22;7640;53.116;6.878;2022-11-06T16:16:57;12.10;99.90
15083;DHT22;7640;53.116;6.878;2022-11-06T16:19:59;12.10;99.90
15083;DHT22;7640;53.116;6.878;2022-11-06T16:22:49;12.00;99.90
15083;DHT22;7640;53.116;6.878;2022-11-06T16:25:38;12.00;99.90
15083;DHT22;7640;53.116;6.878;2022-11-06T16:28:59;12.00;99.90
15083;DHT22;7640;53.116;6.878;2022-11-06T16:31:58;11.90;99.90
15083;DHT22;7640;53.116;6.878;2022-11-06T16:34:39;11.80;99.90
15083;DHT22;7640;53.116;6.878;2022-11-06T16:37:43;11.80;99.90
15083;DHT22;7640;53.116;6.878;2022-11-06T16:40:57;11.70;99.90
15083;DHT22;7640;53.116;6.878;2022-11-06T16:44:20;11.60;99.90
15083;DHT22;7640;53.116;6.878;2022-11-06T16:47:16;11.60;99.90
15083;DHT22;7640;53.116;6.878;2022-11-06T16:49:58;11.50;99.90
15083;DHT22;7640;53.116;6.878;2022-11-06T16:53:08;11.40;99.90
15083;DHT22;7640;53.116;6.878;2022-11-06T16:56:03;11.40;99.90
15083;DHT22;7640;53.116;6.878;2022-11-06T16:58:45;11.20;99.90
15083;DHT22;7640;53.116;6.878;2022-11-06T17:01:20;11.20;99.90
15083;DHT22;7640;53.116;6.878;2022-11-06T17:04:12;11.50;99.90
15083;DHT22;7640;53.116;6.878;2022-11-06T17:06:52;11.00;99.90
15083;DHT22;7640;53.116;6.878;2022-11-06T17:09:45;10.90;99.90
15083;DHT22;7640;53.116;6.878;2022-11-06T17:12:36;10.70;99.90
15083;DHT22;7640;53.116;6.878;2022-11-06T17:15:42;10.50;99.90
15083;DHT22;7640;53.116;6.878;2022-11-06T17:18:19;10.30;99.90
15083;DHT22;7640;53.116;6.878;2022-11-06T17:21:23;10.20;99.90
15083;DHT22;7640;53.116;6.878;2022-11-06T17:24:17;10.10;99.90
15083;DHT22;7640;53.116;6.878;2022-11-06T17:27:06;10.00;99.90
15083;DHT22;7640;53.116;6.878;2022-11-06T17:29:50;10.00;99.90
15083;DHT22;7640;53.116;6.878;2022-11-06T17:32:29;9.90;99.90
15083;DHT22;7640;53.116;6.878;2022-11-06T17:35:09;9.90;99.90
15083;DHT22;7640;53.116;6.878;2022-11-06T17:37:46;9.90;99.90
15083;DHT22;7640;53.116;6.878;2022-11-06T17:40:22;9.80;99.90
15083;DHT22;7640;53.116;6.878;2022-11-06T17:43:02;9.80;99.90
15083;DHT22;7640;53.116;6.878;2022-11-06T17:45:47;9.80;99.90
15083;DHT22;7640;53.116;6.878;2022-11-06T17:48:31;9.70;99.90
15083;DHT22;7640;53.116;6.878;2022-11-06T17:51:06;9.70;99.90
15083;DHT22;7640;53.116;6.878;2022-11-06T17:53:59;9.70;99.90
15083;DHT22;7640;53.116;6.878;2022-11-06T17:56:34;9.70;99.90
15083;DHT22;7640;53.116;6.878;2022-11-06T17:59:13;9.60;99.90
15083;DHT22;7640;53.116;6.878;2022-11-06T18:01:49;9.70;99.90
15083;DHT22;7640;53.116;6.878;2022-11-06T18:04:26;9.70;99.90
15083;DHT22;7640;53.116;6.878;2022-11-06T18:07:03;9.70;99.90
15083;DHT22;7640;53.116;6.878;2022-11-06T18:09:56;9.70;99.90
15083;DHT22;7640;53.116;6.878;2022-11-06T18:12:38;9.60;99.90
15083;DHT22;7640;53.116;6.878;2022-11-06T18:15:14;9.60;99.90
15083;DHT22;7640;53.116;6.878;2022-11-06T18:18:23;9.60;99.90
15083;DHT22;7640;53.116;6.878;2022-11-06T18:21:03;10.20;99.90
15083;DHT22;7640;53.116;6.878;2022-11-06T18:23:53;9.60;99.90
15083;DHT22;7640;53.116;6.878;2022-11-06T18:26:55;9.60;99.90
15083;DHT22;7640;53.116;6.878;2022-11-06T18:29:29;9.50;99.90
15083;DHT22;7640;53.116;6.878;2022-11-06T18:32:29;9.50;99.90
15083;DHT22;7640;53.116;6.878;2022-11-06T18:35:16;9.50;99.90
15083;DHT22;7640;53.116;6.878;2022-11-06T18:38:01;9.50;99.90
15083;DHT22;7640;53.116;6.878;2022-11-06T18:40:41;9.50;99.90
15083;DHT22;7640;53.116;6.878;2022-11-06T18:43:21;9.50;99.90
15083;DHT22;7640;53.116;6.878;2022-11-06T18:45:54;9.50;99.90
15083;DHT22;7640;53.116;6.878;2022-11-06T18:48:50;9.60;99.90
15083;DHT22;7640;53.116;6.878;2022-11-06T18:51:34;9.50;99.90
15083;DHT22;7640;53.116;6.878;2022-11-06T18:54:13;8.80;99.90
15083;DHT22;7640;53.116;6.878;2022-11-06T18:57:07;9.90;99.90
15083;DHT22;7640;53.116;6.878;2022-11-06T18:59:38;9.50;99.90
15083;DHT22;7640;53.116;6.878;2022-11-06T19:02:51;9.50;99.90
15083;DHT22;7640;53.116;6.878;2022-11-06T19:05:44;9.50;99.90